Regulus — ZGAS3 — position and weather

sailwx.info

Track history (hours):
 
Tides and Currents Weather Stations Pressure Air Temp Water Temp Dewpoint Dewpoint Depression Visibility Wind Speed Wind Dir Waves Ship Positions

Regulus

Last reported at 2016-Aug-26 07:33 UTC. Time now 2016-Aug-26 08:27 UTC.
Position N 42°26' E 018°41'.

Length 40 m; draft 2.7 m.

Type: Pleasure craft. MMSI: 319474000.

Date/timePositionNaut miles runAvg speedWind from/ knotsBaromVisibWave heightAir tempDewpointWater temp
2016-Aug-26 07:33N 42°26' E 018°41'0 0.0
2016-Aug-26 06:33N 42°26' E 018°41'0 0.0
2016-Aug-26 04:33N 42°26' E 018°41'0 0.0
2016-Aug-26 03:33N 42°26' E 018°41'0 0.0
2016-Aug-26 02:33N 42°26' E 018°41'0 0.0
2016-Aug-26 01:33N 42°26' E 018°41'0 0.0
2016-Aug-26 00:33N 42°26' E 018°41'0 0.0
2016-Aug-25 23:33N 42°26' E 018°41'0 0.0
2016-Aug-25 22:33N 42°26' E 018°41'0 0.0
2016-Aug-25 21:33N 42°26' E 018°41'0 0.0
2016-Aug-25 20:33N 42°26' E 018°41'0 0.0
2016-Aug-25 19:33N 42°26' E 018°41'0 0.0
2016-Aug-25 18:33N 42°26' E 018°41'0 0.0
2016-Aug-25 17:33N 42°26' E 018°41'0 0.0
2016-Aug-25 16:33N 42°26' E 018°41'0 0.0
2016-Aug-25 15:33N 42°26' E 018°41'0 0.0
2016-Aug-25 14:33N 42°26' E 018°41'0 0.0
2016-Aug-25 13:33N 42°26' E 018°41'0 0.0
2016-Aug-25 12:33N 42°26' E 018°41'0 0.0
2016-Aug-25 11:33N 42°26' E 018°41'0 0.0
2016-Aug-25 10:33N 42°26' E 018°41'0 0.0
2016-Aug-25 09:33N 42°26' E 018°41'0 0.0
2016-Aug-25 08:33N 42°26' E 018°41'0 0.0
2016-Aug-25 07:33N 42°26' E 018°41'0 0.0
2016-Aug-25 06:33N 42°26' E 018°41'0 0.0
2016-Aug-25 04:33N 42°26' E 018°41'0 0.0
2016-Aug-25 03:33N 42°26' E 018°41'0 0.0
2016-Aug-25 02:30N 42°26' E 018°41'0 0.0
2016-Aug-25 01:33N 42°26' E 018°41'0 0.0
2016-Aug-25 00:33N 42°26' E 018°41'0 0.0
2016-Aug-24 23:33N 42°26' E 018°41'0 0.0
2016-Aug-24 22:33N 42°26' E 018°41'0 0.0
2016-Aug-24 21:33N 42°26' E 018°41'0 0.0
2016-Aug-24 20:33N 42°26' E 018°41'0 0.0
2016-Aug-24 19:33N 42°26' E 018°41'0 0.0
2016-Aug-24 18:33N 42°26' E 018°41'0 0.0
2016-Aug-24 17:33N 42°26' E 018°41'0 0.0
2016-Aug-24 16:33N 42°26' E 018°41'0 0.0
2016-Aug-24 15:33N 42°26' E 018°41'0 0.0
2016-Aug-24 14:33N 42°26' E 018°41'0 0.0
2016-Aug-24 13:27N 42°26' E 018°41'0 0.0
2016-Aug-24 12:31N 42°26' E 018°41'0 0.0
2016-Aug-24 11:31N 42°26' E 018°41'0 0.0
2016-Aug-24 10:31N 42°26' E 018°41'0 0.0
2016-Aug-24 09:31N 42°26' E 018°41'0 0.0
2016-Aug-24 08:31N 42°26' E 018°41'0 0.0
2016-Aug-24 07:31N 42°26' E 018°41'0 0.0
2016-Aug-24 06:31N 42°26' E 018°41'1 0.3
2016-Aug-24 04:31N 42°25' E 018°41'0 0.0
2016-Aug-24 03:31N 42°25' E 018°41'0 0.0
2016-Aug-24 02:31N 42°25' E 018°41'0 0.0
2016-Aug-24 01:31N 42°25' E 018°41'0 0.0
2016-Aug-24 00:31N 42°25' E 018°41'0 0.0
2016-Aug-23 23:31N 42°25' E 018°41'0 0.0
2016-Aug-23 22:31N 42°25' E 018°41'0 0.0
2016-Aug-23 21:31N 42°25' E 018°41'3 3.2
2016-Aug-23 20:34N 42°26' E 018°37'5 5.0
2016-Aug-23 19:33N 42°21' E 018°37'1010.1
2016-Aug-23 18:33N 42°15' E 018°49'2 0.3
2016-Aug-23 10:32N 42°16' E 018°52'0 0.0
2016-Aug-23 09:32N 42°16' E 018°51'0 0.0
2016-Aug-23 04:32N 42°16' E 018°51'0 0.0
2016-Aug-22 18:14N 42°16' E 018°51'1 1.9
2016-Aug-22 17:32N 42°16' E 018°53'0 0.2
2016-Aug-22 16:31N 42°16' E 018°53'0 0.0
2016-Aug-22 15:33N 42°16' E 018°53'0 0.0
2016-Aug-22 13:26N 42°16' E 018°53'0 0.0
2016-Aug-22 12:32N 42°16' E 018°53'0 0.0
2016-Aug-22 11:08N 42°16' E 018°53'0 0.0
2016-Aug-22 10:20N 42°16' E 018°53'0 0.0
2016-Aug-21 16:23N 42°16' E 018°53'0 0.0
2016-Aug-21 14:20N 42°16' E 018°53'0 0.0
2016-Aug-21 13:32N 42°16' E 018°53'0 0.0
2016-Aug-21 12:29N 42°16' E 018°53'0 0.0
2016-Aug-21 11:32N 42°16' E 018°53'0 0.0
2016-Aug-21 10:32N 42°16' E 018°53'0 0.0
2016-Aug-21 09:29N 42°16' E 018°53'1 0.6
2016-Aug-21 08:30N 42°16' E 018°53'1 0.6
2016-Aug-21 07:27N 42°16' E 018°52'0 0.0
2016-Aug-21 06:24N 42°16' E 018°52'0 0.0
2016-Aug-21 05:33N 42°16' E 018°52'0 0.0
2016-Aug-21 04:27N 42°16' E 018°52'0 0.0
2016-Aug-21 03:33N 42°16' E 018°52'0 0.0
2016-Aug-21 02:18N 42°16' E 018°52'0 0.0
2016-Aug-21 01:27N 42°16' E 018°52'0 0.0
2016-Aug-21 00:33N 42°16' E 018°52'0 0.0
2016-Aug-20 23:33N 42°16' E 018°52'0 0.0
2016-Aug-20 22:27N 42°16' E 018°52'0 0.0
2016-Aug-20 21:30N 42°16' E 018°52'0 0.0
2016-Aug-20 20:33N 42°16' E 018°52'0 0.0
2016-Aug-20 19:15N 42°16' E 018°52'0 0.0
2016-Aug-20 18:30N 42°16' E 018°52'0 0.0
2016-Aug-20 17:18N 42°16' E 018°52'6 6.0
2016-Aug-20 16:17N 42°18' E 018°44'5 6.0
2016-Aug-20 15:31N 42°22' E 018°41'0 0.0
2016-Aug-20 14:31N 42°22' E 018°41'0 0.0
2016-Aug-20 13:31N 42°22' E 018°41'0 0.0
2016-Aug-20 12:28N 42°22' E 018°41'0 0.0
2016-Aug-20 11:31N 42°22' E 018°41'0 0.5
2016-Aug-20 10:32N 42°22' E 018°41'0 0.0
2016-Aug-20 09:32N 42°22' E 018°41'0 0.0
2016-Aug-20 08:32N 42°22' E 018°41'0 0.0
2016-Aug-20 07:32N 42°22' E 018°41'0 0.1
2016-Aug-20 06:32N 42°22' E 018°41'0 0.0
2016-Aug-20 05:32N 42°22' E 018°41'0 0.0
2016-Aug-20 04:32N 42°22' E 018°41'0 0.0
2016-Aug-20 03:32N 42°22' E 018°41'0 0.0
2016-Aug-20 02:32N 42°22' E 018°41'0 0.0
2016-Aug-20 01:32N 42°22' E 018°41'0 0.0
2016-Aug-20 00:32N 42°22' E 018°41'0 0.0
2016-Aug-19 23:32N 42°22' E 018°41'0 0.0
2016-Aug-19 22:32N 42°22' E 018°41'0 0.0
2016-Aug-19 21:32N 42°22' E 018°41'0 0.0
2016-Aug-19 20:32N 42°22' E 018°41'4 4.2
2016-Aug-19 19:33N 42°22' E 018°36'4 1.3
2016-Aug-19 16:16N 42°26' E 018°33'6 8.3
2016-Aug-19 15:33N 42°26' E 018°41'1 0.6
2016-Aug-19 14:32N 42°26' E 018°41'0 0.0
2016-Aug-19 13:32N 42°26' E 018°41'0 0.0
2016-Aug-19 12:32N 42°26' E 018°41'0 0.0
2016-Aug-19 11:32N 42°26' E 018°41'0 0.1
2016-Aug-19 10:32N 42°26' E 018°41'0 0.3
2016-Aug-19 09:32N 42°26' E 018°41'0 0.0
2016-Aug-19 08:32N 42°26' E 018°41'0 0.0
2016-Aug-19 07:32N 42°26' E 018°41'0 0.0
2016-Aug-19 06:32N 42°26' E 018°41'0 0.0
2016-Aug-19 05:32N 42°26' E 018°41'0 0.0
2016-Aug-19 04:32N 42°26' E 018°41'0 0.0
2016-Aug-19 03:32N 42°26' E 018°41'0 0.0
2016-Aug-19 02:32N 42°26' E 018°41'0 0.0
2016-Aug-19 01:32N 42°26' E 018°41'0 0.0
2016-Aug-19 00:32N 42°26' E 018°41'0 0.0
2016-Aug-18 23:32N 42°26' E 018°41'0 0.0
2016-Aug-18 22:32N 42°26' E 018°41'0 0.0
2016-Aug-18 21:32N 42°26' E 018°41'0 0.0
2016-Aug-18 20:32N 42°26' E 018°41'0 0.0
2016-Aug-18 19:32N 42°26' E 018°41'0 0.0
2016-Aug-18 18:32N 42°26' E 018°41'0 0.0
2016-Aug-18 17:26N 42°26' E 018°41'0 0.0
2016-Aug-18 16:32N 42°26' E 018°41'0 0.0
2016-Aug-18 15:32N 42°26' E 018°41'0 0.0
2016-Aug-18 14:32N 42°26' E 018°41'0 0.0
2016-Aug-18 13:32N 42°26' E 018°41'0 0.0
2016-Aug-18 12:32N 42°26' E 018°41'0 0.0
2016-Aug-18 11:32N 42°26' E 018°41'0 0.0
2016-Aug-18 10:32N 42°26' E 018°41'0 0.0
2016-Aug-18 09:32N 42°26' E 018°41'0 0.0
2016-Aug-18 08:29N 42°26' E 018°41'0 0.0
2016-Aug-18 07:32N 42°26' E 018°41'0 0.0
2016-Aug-18 06:32N 42°26' E 018°41'0 0.0
2016-Aug-18 05:32N 42°26' E 018°41'0 0.0
2016-Aug-18 04:32N 42°26' E 018°41'0 0.0
2016-Aug-18 03:32N 42°26' E 018°41'0 0.0
2016-Aug-18 02:32N 42°26' E 018°41'0 0.0
2016-Aug-18 01:32N 42°26' E 018°41'0 0.0
2016-Aug-18 00:32N 42°26' E 018°41'0 0.0
2016-Aug-17 23:32N 42°26' E 018°41'0 0.0
2016-Aug-17 22:32N 42°26' E 018°41'0 0.0
2016-Aug-17 21:32N 42°26' E 018°41'0 0.0
2016-Aug-17 20:32N 42°26' E 018°41'0 0.0
2016-Aug-17 19:32N 42°26' E 018°41'0 0.0
2016-Aug-17 18:32N 42°26' E 018°41'0 0.0
2016-Aug-17 17:32N 42°26' E 018°41'0 0.0
2016-Aug-17 16:32N 42°26' E 018°41'0 0.0
2016-Aug-17 15:32N 42°26' E 018°41'0 0.0
2016-Aug-17 14:32N 42°26' E 018°41'0 0.0
2016-Aug-17 13:32N 42°26' E 018°41'0 0.0
2016-Aug-17 12:32N 42°26' E 018°41'0 0.0
2016-Aug-17 11:32N 42°26' E 018°41'0 0.0
2016-Aug-17 10:32N 42°26' E 018°41'0 0.0
2016-Aug-17 09:31N 42°26' E 018°41'0 0.0
2016-Aug-17 08:31N 42°26' E 018°41'0 0.0
2016-Aug-17 07:31N 42°26' E 018°41'0 0.0
2016-Aug-17 06:31N 42°26' E 018°41'0 0.0
2016-Aug-17 05:31N 42°26' E 018°41'0 0.0
2016-Aug-17 04:28N 42°26' E 018°41'0 0.0
2016-Aug-17 03:31N 42°26' E 018°41'0 0.0
2016-Aug-17 02:31N 42°26' E 018°41'0 0.0
2016-Aug-17 01:31N 42°26' E 018°41'0 0.0
2016-Aug-17 00:28N 42°26' E 018°41'0 0.0
2016-Aug-16 23:31N 42°26' E 018°41'0 0.0
2016-Aug-16 22:31N 42°26' E 018°41'0 0.0
2016-Aug-16 21:31N 42°26' E 018°41'0 0.0
2016-Aug-16 20:31N 42°26' E 018°41'0 0.0
2016-Aug-16 19:31N 42°26' E 018°41'0 0.0
2016-Aug-16 18:31N 42°26' E 018°41'0 0.0
2016-Aug-16 17:31N 42°26' E 018°41'0 0.0
2016-Aug-16 16:31N 42°26' E 018°41'0 0.0
2016-Aug-16 15:31N 42°26' E 018°41'0 0.0
2016-Aug-16 14:31N 42°26' E 018°41'0 0.0
2016-Aug-16 13:31N 42°26' E 018°41'0 0.0
2016-Aug-16 12:31N 42°26' E 018°41'0 0.0
2016-Aug-16 11:31N 42°26' E 018°41'0 0.0
2016-Aug-16 10:31N 42°26' E 018°41'0 0.0
2016-Aug-16 09:31N 42°26' E 018°41'0 0.0
2016-Aug-16 08:31N 42°26' E 018°41'  
Track history (hours):
 
Tides and Currents Weather Stations Pressure Air Temp Water Temp Dewpoint Dewpoint Depression Visibility Wind Speed Wind Dir Waves Ship Positions

Regulus

Last reported at 2016-Aug-26 07:33 UTC. Time now 2016-Aug-26 08:27 UTC.
Position N 42°26' E 018°41'.

Length 40 m; draft 2.7 m.

Type: Pleasure craft. MMSI: 319474000.

Date/timePositionNaut miles runAvg speedWind from/ knotsBaromVisibWave heightAir tempDewpointWater temp
2016-Aug-26 07:33N 42°26' E 018°41'0 0.0
2016-Aug-26 06:33N 42°26' E 018°41'0 0.0
2016-Aug-26 04:33N 42°26' E 018°41'0 0.0
2016-Aug-26 03:33N 42°26' E 018°41'0 0.0
2016-Aug-26 02:33N 42°26' E 018°41'0 0.0
2016-Aug-26 01:33N 42°26' E 018°41'0 0.0
2016-Aug-26 00:33N 42°26' E 018°41'0 0.0
2016-Aug-25 23:33N 42°26' E 018°41'0 0.0
2016-Aug-25 22:33N 42°26' E 018°41'0 0.0
2016-Aug-25 21:33N 42°26' E 018°41'0 0.0
2016-Aug-25 20:33N 42°26' E 018°41'0 0.0
2016-Aug-25 19:33N 42°26' E 018°41'0 0.0
2016-Aug-25 18:33N 42°26' E 018°41'0 0.0
2016-Aug-25 17:33N 42°26' E 018°41'0 0.0
2016-Aug-25 16:33N 42°26' E 018°41'0 0.0
2016-Aug-25 15:33N 42°26' E 018°41'0 0.0
2016-Aug-25 14:33N 42°26' E 018°41'0 0.0
2016-Aug-25 13:33N 42°26' E 018°41'0 0.0
2016-Aug-25 12:33N 42°26' E 018°41'0 0.0
2016-Aug-25 11:33N 42°26' E 018°41'0 0.0
2016-Aug-25 10:33N 42°26' E 018°41'0 0.0
2016-Aug-25 09:33N 42°26' E 018°41'0 0.0
2016-Aug-25 08:33N 42°26' E 018°41'0 0.0
2016-Aug-25 07:33N 42°26' E 018°41'0 0.0
2016-Aug-25 06:33N 42°26' E 018°41'0 0.0
2016-Aug-25 04:33N 42°26' E 018°41'0 0.0
2016-Aug-25 03:33N 42°26' E 018°41'0 0.0
2016-Aug-25 02:30N 42°26' E 018°41'0 0.0
2016-Aug-25 01:33N 42°26' E 018°41'0 0.0
2016-Aug-25 00:33N 42°26' E 018°41'0 0.0
2016-Aug-24 23:33N 42°26' E 018°41'0 0.0
2016-Aug-24 22:33N 42°26' E 018°41'0 0.0
2016-Aug-24 21:33N 42°26' E 018°41'0 0.0
2016-Aug-24 20:33N 42°26' E 018°41'0 0.0
2016-Aug-24 19:33N 42°26' E 018°41'0 0.0
2016-Aug-24 18:33N 42°26' E 018°41'0 0.0
2016-Aug-24 17:33N 42°26' E 018°41'0 0.0
2016-Aug-24 16:33N 42°26' E 018°41'0 0.0
2016-Aug-24 15:33N 42°26' E 018°41'0 0.0
2016-Aug-24 14:33N 42°26' E 018°41'0 0.0
2016-Aug-24 13:27N 42°26' E 018°41'0 0.0
2016-Aug-24 12:31N 42°26' E 018°41'0 0.0
2016-Aug-24 11:31N 42°26' E 018°41'0 0.0
2016-Aug-24 10:31N 42°26' E 018°41'0 0.0
2016-Aug-24 09:31N 42°26' E 018°41'0 0.0
2016-Aug-24 08:31N 42°26' E 018°41'0 0.0
2016-Aug-24 07:31N 42°26' E 018°41'0 0.0
2016-Aug-24 06:31N 42°26' E 018°41'1 0.3
2016-Aug-24 04:31N 42°25' E 018°41'0 0.0
2016-Aug-24 03:31N 42°25' E 018°41'0 0.0
2016-Aug-24 02:31N 42°25' E 018°41'0 0.0
2016-Aug-24 01:31N 42°25' E 018°41'0 0.0
2016-Aug-24 00:31N 42°25' E 018°41'0 0.0
2016-Aug-23 23:31N 42°25' E 018°41'0 0.0
2016-Aug-23 22:31N 42°25' E 018°41'0 0.0
2016-Aug-23 21:31N 42°25' E 018°41'3 3.2
2016-Aug-23 20:34N 42°26' E 018°37'5 5.0
2016-Aug-23 19:33N 42°21' E 018°37'1010.1
2016-Aug-23 18:33N 42°15' E 018°49'2 0.3
2016-Aug-23 10:32N 42°16' E 018°52'0 0.0
2016-Aug-23 09:32N 42°16' E 018°51'0 0.0
2016-Aug-23 04:32N 42°16' E 018°51'0 0.0
2016-Aug-22 18:14N 42°16' E 018°51'1 1.9
2016-Aug-22 17:32N 42°16' E 018°53'0 0.2
2016-Aug-22 16:31N 42°16' E 018°53'0 0.0
2016-Aug-22 15:33N 42°16' E 018°53'0 0.0
2016-Aug-22 13:26N 42°16' E 018°53'0 0.0
2016-Aug-22 12:32N 42°16' E 018°53'0 0.0
2016-Aug-22 11:08N 42°16' E 018°53'0 0.0
2016-Aug-22 10:20N 42°16' E 018°53'0 0.0
2016-Aug-21 16:23N 42°16' E 018°53'0 0.0
2016-Aug-21 14:20N 42°16' E 018°53'0 0.0
2016-Aug-21 13:32N 42°16' E 018°53'0 0.0
2016-Aug-21 12:29N 42°16' E 018°53'0 0.0
2016-Aug-21 11:32N 42°16' E 018°53'0 0.0
2016-Aug-21 10:32N 42°16' E 018°53'0 0.0
2016-Aug-21 09:29N 42°16' E 018°53'1 0.6
2016-Aug-21 08:30N 42°16' E 018°53'1 0.6
2016-Aug-21 07:27N 42°16' E 018°52'0 0.0
2016-Aug-21 06:24N 42°16' E 018°52'0 0.0
2016-Aug-21 05:33N 42°16' E 018°52'0 0.0
2016-Aug-21 04:27N 42°16' E 018°52'0 0.0
2016-Aug-21 03:33N 42°16' E 018°52'0 0.0
2016-Aug-21 02:18N 42°16' E 018°52'0 0.0
2016-Aug-21 01:27N 42°16' E 018°52'0 0.0
2016-Aug-21 00:33N 42°16' E 018°52'0 0.0
2016-Aug-20 23:33N 42°16' E 018°52'0 0.0
2016-Aug-20 22:27N 42°16' E 018°52'0 0.0
2016-Aug-20 21:30N 42°16' E 018°52'0 0.0
2016-Aug-20 20:33N 42°16' E 018°52'0 0.0
2016-Aug-20 19:15N 42°16' E 018°52'0 0.0
2016-Aug-20 18:30N 42°16' E 018°52'0 0.0
2016-Aug-20 17:18N 42°16' E 018°52'6 6.0
2016-Aug-20 16:17N 42°18' E 018°44'5 6.0
2016-Aug-20 15:31N 42°22' E 018°41'0 0.0
2016-Aug-20 14:31N 42°22' E 018°41'0 0.0
2016-Aug-20 13:31N 42°22' E 018°41'0 0.0
2016-Aug-20 12:28N 42°22' E 018°41'0 0.0
2016-Aug-20 11:31N 42°22' E 018°41'0 0.5
2016-Aug-20 10:32N 42°22' E 018°41'0 0.0
2016-Aug-20 09:32N 42°22' E 018°41'0 0.0
2016-Aug-20 08:32N 42°22' E 018°41'0 0.0
2016-Aug-20 07:32N 42°22' E 018°41'0 0.1
2016-Aug-20 06:32N 42°22' E 018°41'0 0.0
2016-Aug-20 05:32N 42°22' E 018°41'0 0.0
2016-Aug-20 04:32N 42°22' E 018°41'0 0.0
2016-Aug-20 03:32N 42°22' E 018°41'0 0.0
2016-Aug-20 02:32N 42°22' E 018°41'0 0.0
2016-Aug-20 01:32N 42°22' E 018°41'0 0.0
2016-Aug-20 00:32N 42°22' E 018°41'0 0.0
2016-Aug-19 23:32N 42°22' E 018°41'0 0.0
2016-Aug-19 22:32N 42°22' E 018°41'0 0.0
2016-Aug-19 21:32N 42°22' E 018°41'0 0.0
2016-Aug-19 20:32N 42°22' E 018°41'4 4.2
2016-Aug-19 19:33N 42°22' E 018°36'4 1.3
2016-Aug-19 16:16N 42°26' E 018°33'6 8.3
2016-Aug-19 15:33N 42°26' E 018°41'1 0.6
2016-Aug-19 14:32N 42°26' E 018°41'0 0.0
2016-Aug-19 13:32N 42°26' E 018°41'0 0.0
2016-Aug-19 12:32N 42°26' E 018°41'0 0.0
2016-Aug-19 11:32N 42°26' E 018°41'0 0.1
2016-Aug-19 10:32N 42°26' E 018°41'0 0.3
2016-Aug-19 09:32N 42°26' E 018°41'0 0.0
2016-Aug-19 08:32N 42°26' E 018°41'0 0.0
2016-Aug-19 07:32N 42°26' E 018°41'0 0.0
2016-Aug-19 06:32N 42°26' E 018°41'0 0.0
2016-Aug-19 05:32N 42°26' E 018°41'0 0.0
2016-Aug-19 04:32N 42°26' E 018°41'0 0.0
2016-Aug-19 03:32N 42°26' E 018°41'0 0.0
2016-Aug-19 02:32N 42°26' E 018°41'0 0.0
2016-Aug-19 01:32N 42°26' E 018°41'0 0.0
2016-Aug-19 00:32N 42°26' E 018°41'0 0.0
2016-Aug-18 23:32N 42°26' E 018°41'0 0.0
2016-Aug-18 22:32N 42°26' E 018°41'0 0.0
2016-Aug-18 21:32N 42°26' E 018°41'0 0.0
2016-Aug-18 20:32N 42°26' E 018°41'0 0.0
2016-Aug-18 19:32N 42°26' E 018°41'0 0.0
2016-Aug-18 18:32N 42°26' E 018°41'0 0.0
2016-Aug-18 17:26N 42°26' E 018°41'0 0.0
2016-Aug-18 16:32N 42°26' E 018°41'0 0.0
2016-Aug-18 15:32N 42°26' E 018°41'0 0.0
2016-Aug-18 14:32N 42°26' E 018°41'0 0.0
2016-Aug-18 13:32N 42°26' E 018°41'0 0.0
2016-Aug-18 12:32N 42°26' E 018°41'0 0.0
2016-Aug-18 11:32N 42°26' E 018°41'0 0.0
2016-Aug-18 10:32N 42°26' E 018°41'0 0.0
2016-Aug-18 09:32N 42°26' E 018°41'0 0.0
2016-Aug-18 08:29N 42°26' E 018°41'0 0.0
2016-Aug-18 07:32N 42°26' E 018°41'0 0.0
2016-Aug-18 06:32N 42°26' E 018°41'0 0.0
2016-Aug-18 05:32N 42°26' E 018°41'0 0.0
2016-Aug-18 04:32N 42°26' E 018°41'0 0.0
2016-Aug-18 03:32N 42°26' E 018°41'0 0.0
2016-Aug-18 02:32N 42°26' E 018°41'0 0.0
2016-Aug-18 01:32N 42°26' E 018°41'0 0.0
2016-Aug-18 00:32N 42°26' E 018°41'0 0.0
2016-Aug-17 23:32N 42°26' E 018°41'0 0.0
2016-Aug-17 22:32N 42°26' E 018°41'0 0.0
2016-Aug-17 21:32N 42°26' E 018°41'0 0.0
2016-Aug-17 20:32N 42°26' E 018°41'0 0.0
2016-Aug-17 19:32N 42°26' E 018°41'0 0.0
2016-Aug-17 18:32N 42°26' E 018°41'0 0.0
2016-Aug-17 17:32N 42°26' E 018°41'0 0.0
2016-Aug-17 16:32N 42°26' E 018°41'0 0.0
2016-Aug-17 15:32N 42°26' E 018°41'0 0.0
2016-Aug-17 14:32N 42°26' E 018°41'0 0.0
2016-Aug-17 13:32N 42°26' E 018°41'0 0.0
2016-Aug-17 12:32N 42°26' E 018°41'0 0.0
2016-Aug-17 11:32N 42°26' E 018°41'0 0.0
2016-Aug-17 10:32N 42°26' E 018°41'0 0.0
2016-Aug-17 09:31N 42°26' E 018°41'0 0.0
2016-Aug-17 08:31N 42°26' E 018°41'0 0.0
2016-Aug-17 07:31N 42°26' E 018°41'0 0.0
2016-Aug-17 06:31N 42°26' E 018°41'0 0.0
2016-Aug-17 05:31N 42°26' E 018°41'0 0.0
2016-Aug-17 04:28N 42°26' E 018°41'0 0.0
2016-Aug-17 03:31N 42°26' E 018°41'0 0.0
2016-Aug-17 02:31N 42°26' E 018°41'0 0.0
2016-Aug-17 01:31N 42°26' E 018°41'0 0.0
2016-Aug-17 00:28N 42°26' E 018°41'0 0.0
2016-Aug-16 23:31N 42°26' E 018°41'0 0.0
2016-Aug-16 22:31N 42°26' E 018°41'0 0.0
2016-Aug-16 21:31N 42°26' E 018°41'0 0.0
2016-Aug-16 20:31N 42°26' E 018°41'0 0.0
2016-Aug-16 19:31N 42°26' E 018°41'0 0.0
2016-Aug-16 18:31N 42°26' E 018°41'0 0.0
2016-Aug-16 17:31N 42°26' E 018°41'0 0.0
2016-Aug-16 16:31N 42°26' E 018°41'0 0.0
2016-Aug-16 15:31N 42°26' E 018°41'0 0.0
2016-Aug-16 14:31N 42°26' E 018°41'0 0.0
2016-Aug-16 13:31N 42°26' E 018°41'0 0.0
2016-Aug-16 12:31N 42°26' E 018°41'0 0.0
2016-Aug-16 11:31N 42°26' E 018°41'0 0.0
2016-Aug-16 10:31N 42°26' E 018°41'0 0.0
2016-Aug-16 09:31N 42°26' E 018°41'0 0.0
2016-Aug-16 08:31N 42°26' E 018°41'  

Dump ship's entire track history